Time;durP1;ratioP1;P1;durP2;ratioP2;P2;SDS_P1;SDS_P2;PMS_P1;PMS_P2;Temp;Humidity;BMP_temperature;BMP_pressure;BME280_temperature;BME280_humidity;BME280_pressure;Samples;Min_cycle;Max_cycle;Signal;HPM_P1;HPM_P2
2021/09/25 00:01:35;;;;;;;8.82;5.10;;;16.40;99.90;;;;;;4975534;28;20086;-76
2021/09/25 00:04:02;;;;;;;8.70;5.85;;;16.30;99.90;;;;;;4978482;28;20067;-77
2021/09/25 00:06:29;;;;;;;7.70;5.55;;;16.30;99.90;;;;;;4974637;28;20444;-79
2021/09/25 00:08:58;;;;;;;11.13;5.88;;;16.20;99.90;;;;;;4974334;28;20051;-78
2021/09/25 00:11:26;;;;;;;11.48;5.47;;;16.20;99.90;;;;;;4974230;28;20076;-78
2021/09/25 00:13:53;;;;;;;11.45;5.93;;;16.20;99.90;;;;;;4974041;28;20058;-78
2021/09/25 00:16:20;;;;;;;8.55;5.75;;;16.20;99.90;;;;;;4974575;28;20142;-77
2021/09/25 00:18:46;;;;;;;8.40;5.47;;;16.20;99.90;;;;;;4974400;28;20433;-77
2021/09/25 00:21:13;;;;;;;9.02;5.60;;;16.20;99.90;;;;;;4974035;28;20505;-76
2021/09/25 00:23:40;;;;;;;11.77;5.80;;;16.20;99.90;;;;;;4973954;28;20130;-78
2021/09/25 00:26:09;;;;;;;10.07;6.10;;;16.10;99.90;;;;;;4973086;28;20129;-77
2021/09/25 00:28:35;;;;;;;8.40;6.00;;;16.10;99.90;;;;;;4974279;28;20105;-78
2021/09/25 00:31:02;;;;;;;8.15;5.90;;;16.00;99.90;;;;;;4974136;28;20138;-78
2021/09/25 00:33:29;;;;;;;9.00;5.55;;;16.00;99.90;;;;;;4973675;28;20134;-79
2021/09/25 00:35:56;;;;;;;9.30;5.82;;;15.90;99.90;;;;;;4974552;28;20134;-78
2021/09/25 00:38:23;;;;;;;10.10;5.25;;;15.90;99.90;;;;;;4974251;28;20061;-80
2021/09/25 00:40:50;;;;;;;9.30;5.82;;;15.80;99.90;;;;;;4974745;28;20101;-78
2021/09/25 00:43:18;;;;;;;6.80;5.40;;;15.80;99.90;;;;;;4975136;28;20134;-81
2021/09/25 00:45:47;;;;;;;6.10;5.13;;;15.80;99.90;;;;;;4975324;28;20484;-81
2021/09/25 00:48:14;;;;;;;6.47;5.10;;;15.80;99.90;;;;;;4975586;28;20050;-79
2021/09/25 00:50:41;;;;;;;7.00;5.47;;;15.80;99.90;;;;;;4974455;28;20581;-78
2021/09/25 00:53:08;;;;;;;6.95;5.45;;;15.70;99.90;;;;;;4973832;28;20129;-78
2021/09/25 00:55:35;;;;;;;7.47;5.60;;;15.70;99.90;;;;;;4973633;28;20082;-78
2021/09/25 00:58:07;;;;;;;6.38;5.57;;;15.60;99.90;;;;;;4974103;28;20133;-78
2021/09/25 01:00:36;;;;;;;9.90;5.95;;;15.60;99.90;;;;;;4973562;28;20082;-81
2021/09/25 01:03:03;;;;;;;7.32;5.53;;;15.60;99.90;;;;;;4973782;28;20137;-77
2021/09/25 01:05:30;;;;;;;7.80;5.38;;;15.50;99.90;;;;;;4972954;28;20529;-79
2021/09/25 01:07:59;;;;;;;8.15;5.18;;;15.50;99.90;;;;;;4973550;28;20153;-78
2021/09/25 01:10:26;;;;;;;6.15;5.40;;;15.50;99.90;;;;;;4974128;28;20121;-78
2021/09/25 01:12:53;;;;;;;5.93;5.15;;;15.40;99.90;;;;;;4974582;28;20108;-79
2021/09/25 01:15:21;;;;;;;7.60;5.30;;;15.30;99.90;;;;;;4973380;28;20097;-79
2021/09/25 01:17:49;;;;;;;6.43;5.22;;;15.40;99.90;;;;;;4973434;28;20448;-78
2021/09/25 01:20:16;;;;;;;7.10;5.50;;;15.40;99.90;;;;;;4973180;28;20137;-78
2021/09/25 01:22:45;;;;;;;6.40;5.38;;;15.40;99.90;;;;;;4973220;28;20165;-79
2021/09/25 01:25:13;;;;;;;6.93;5.70;;;15.30;99.90;;;;;;4972919;28;20142;-78
2021/09/25 01:27:40;;;;;;;6.35;5.00;;;15.40;99.90;;;;;;4972982;28;20053;-78
2021/09/25 01:30:12;;;;;;;7.22;5.15;;;15.30;99.90;;;;;;4972863;28;20046;-78
2021/09/25 01:32:40;;;;;;;6.85;5.50;;;15.30;99.90;;;;;;4973585;28;20133;-78
2021/09/25 01:35:09;;;;;;;7.75;5.45;;;15.30;99.90;;;;;;4973128;28;20047;-78
2021/09/25 01:37:36;;;;;;;6.38;5.65;;;15.20;99.90;;;;;;4973019;28;20133;-78
2021/09/25 01:40:05;;;;;;;9.25;5.18;;;15.20;99.90;;;;;;4972362;28;20054;-76
2021/09/25 01:42:32;;;;;;;7.90;5.80;;;15.10;99.90;;;;;;4973443;28;20565;-79
2021/09/25 01:44:59;;;;;;;6.88;5.50;;;15.10;99.90;;;;;;4973297;28;20057;-78
2021/09/25 01:47:26;;;;;;;6.53;5.47;;;15.00;99.90;;;;;;4972799;28;20130;-78
2021/09/25 01:49:53;;;;;;;6.55;5.60;;;15.00;99.90;;;;;;4972906;28;20050;-78
2021/09/25 01:52:20;;;;;;;8.20;5.72;;;15.10;99.90;;;;;;4972915;28;20057;-78
2021/09/25 01:54:47;;;;;;;8.20;5.50;;;15.00;99.90;;;;;;4973027;28;20462;-79
2021/09/25 01:57:15;;;;;;;7.85;5.90;;;15.10;99.90;;;;;;4973576;28;20050;-77
2021/09/25 01:59:42;;;;;;;6.60;5.60;;;15.10;99.90;;;;;;4973619;28;20145;-77
2021/09/25 02:02:10;;;;;;;6.55;5.47;;;15.10;99.90;;;;;;4973448;28;20483;-80
2021/09/25 02:04:39;;;;;;;6.05;5.15;;;15.10;99.90;;;;;;4972917;28;20142;-78
2021/09/25 02:07:06;;;;;;;6.35;5.47;;;15.00;99.90;;;;;;4973183;28;20051;-79
2021/09/25 02:09:33;;;;;;;8.82;5.68;;;15.10;99.90;;;;;;4973516;28;20125;-79
2021/09/25 02:12:00;;;;;;;6.30;5.50;;;15.10;99.90;;;;;;4972844;28;20552;-77
2021/09/25 02:14:28;;;;;;;6.80;5.57;;;15.00;99.90;;;;;;4972531;28;20043;-77
2021/09/25 02:16:55;;;;;;;6.40;5.15;;;15.00;99.90;;;;;;4975528;28;20749;-78
2021/09/25 02:19:22;;;;;;;7.10;5.28;;;14.90;99.90;;;;;;4975020;28;20061;-79
2021/09/25 02:21:49;;;;;;;8.38;5.80;;;14.90;99.90;;;;;;4973999;28;20082;-78
2021/09/25 02:24:16;;;;;;;8.13;5.85;;;14.90;99.90;;;;;;4976270;28;20134;-78
2021/09/25 02:26:44;;;;;;;7.15;5.72;;;14.90;99.90;;;;;;4977567;28;20098;-78
2021/09/25 02:29:11;;;;;;;8.30;6.20;;;14.80;99.90;;;;;;4976218;28;20101;-78
2021/09/25 02:31:39;;;;;;;8.20;6.03;;;14.80;99.90;;;;;;4975255;28;20134;-78
2021/09/25 02:34:06;;;;;;;7.65;6.00;;;14.90;99.90;;;;;;4972343;28;20047;-78
2021/09/25 02:36:33;;;;;;;6.43;5.60;;;14.90;99.90;;;;;;4972882;28;20085;-79
2021/09/25 02:39:01;;;;;;;8.55;5.90;;;14.90;99.90;;;;;;4972889;28;20050;-79
2021/09/25 02:41:28;;;;;;;7.03;5.88;;;14.90;99.90;;;;;;4973136;28;20085;-78
2021/09/25 02:43:55;;;;;;;7.40;5.90;;;14.80;99.90;;;;;;4973261;28;20129;-80
2021/09/25 02:46:22;;;;;;;9.00;6.50;;;14.80;99.90;;;;;;4973907;28;20054;-78
2021/09/25 02:48:50;;;;;;;8.15;6.40;;;14.80;99.90;;;;;;4974165;28;20436;-79
2021/09/25 02:51:17;;;;;;;6.95;6.20;;;14.70;99.90;;;;;;4976902;28;20232;-78
2021/09/25 02:53:44;;;;;;;7.72;6.22;;;14.70;99.90;;;;;;4976073;28;20133;-79
2021/09/25 02:56:11;;;;;;;9.63;6.10;;;14.70;99.90;;;;;;4976430;28;20089;-78
2021/09/25 02:58:40;;;;;;;7.70;6.20;;;14.70;99.90;;;;;;4976147;28;20134;-78
2021/09/25 03:01:07;;;;;;;9.82;6.90;;;14.70;99.90;;;;;;4976514;28;20050;-79
2021/09/25 03:03:33;;;;;;;10.75;6.30;;;14.60;99.90;;;;;;4976096;28;20142;-77
2021/09/25 03:06:02;;;;;;;7.70;6.30;;;14.50;99.90;;;;;;4976074;28;20461;-78
2021/09/25 03:08:28;;;;;;;6.82;6.13;;;14.50;99.90;;;;;;4976034;28;20133;-77
2021/09/25 03:10:55;;;;;;;7.32;6.30;;;14.50;99.90;;;;;;4976722;28;20481;-77
2021/09/25 03:13:22;;;;;;;7.30;6.50;;;14.40;99.90;;;;;;4975373;28;20248;-80
2021/09/25 03:15:49;;;;;;;7.97;6.20;;;14.40;99.90;;;;;;4975381;28;20047;-79
2021/09/25 03:18:16;;;;;;;8.45;6.35;;;14.40;99.90;;;;;;4976387;28;20137;-79
2021/09/25 03:20:43;;;;;;;7.45;6.10;;;14.40;99.90;;;;;;4982345;28;20058;-79
2021/09/25 03:23:11;;;;;;;7.60;6.03;;;14.30;99.90;;;;;;4976327;28;20057;-78
2021/09/25 03:25:38;;;;;;;8.60;6.45;;;14.20;99.90;;;;;;4975138;28;20133;-77
2021/09/25 03:28:05;;;;;;;7.60;6.28;;;14.10;99.90;;;;;;4974925;28;20369;-78
2021/09/25 03:30:32;;;;;;;7.55;6.38;;;14.00;99.90;;;;;;4976681;28;20082;-77
2021/09/25 03:32:59;;;;;;;11.98;7.00;;;14.00;99.90;;;;;;4974870;28;20058;-80
2021/09/25 03:35:27;;;;;;;7.88;6.28;;;14.00;99.90;;;;;;4974464;28;20085;-78
2021/09/25 03:37:54;;;;;;;7.93;6.50;;;13.90;99.90;;;;;;4974479;28;20130;-77
2021/09/25 03:40:22;;;;;;;9.00;7.60;;;13.90;99.90;;;;;;4974667;28;20051;-76
2021/09/25 03:42:49;;;;;;;9.75;6.68;;;13.90;99.90;;;;;;4974528;28;20046;-78
2021/09/25 03:45:16;;;;;;;10.93;7.10;;;13.90;99.90;;;;;;4974127;28;20085;-77
2021/09/25 03:47:43;;;;;;;10.00;6.93;;;14.00;99.90;;;;;;4975240;28;20086;-77
2021/09/25 03:50:11;;;;;;;8.35;6.90;;;14.00;99.90;;;;;;4974493;28;20142;-78
2021/09/25 03:52:38;;;;;;;9.27;7.30;;;14.00;99.90;;;;;;4974361;28;20102;-80
2021/09/25 03:55:06;;;;;;;8.45;6.70;;;14.00;99.90;;;;;;4973840;28;20130;-78
2021/09/25 03:57:34;;;;;;;8.63;7.07;;;14.00;99.90;;;;;;4974081;28;20141;-78
2021/09/25 04:00:01;;;;;;;7.68;6.80;;;13.90;99.90;;;;;;4974586;28;20051;-78
2021/09/25 04:02:28;;;;;;;11.90;7.82;;;14.00;99.90;;;;;;4973983;28;20142;-79
2021/09/25 04:04:55;;;;;;;9.27;7.32;;;13.90;99.90;;;;;;4974027;28;20046;-77
2021/09/25 04:07:22;;;;;;;10.00;7.28;;;13.90;99.90;;;;;;4974469;28;20135;-77
2021/09/25 04:09:49;;;;;;;8.15;6.82;;;14.00;99.90;;;;;;4974066;28;20141;-80
2021/09/25 04:12:16;;;;;;;10.55;7.25;;;13.90;99.90;;;;;;4974309;28;20050;-78
2021/09/25 04:14:44;;;;;;;8.45;7.05;;;13.90;99.90;;;;;;4974026;28;20074;-77
2021/09/25 04:17:11;;;;;;;11.57;7.22;;;13.90;99.90;;;;;;4973870;28;20424;-78
2021/09/25 04:19:38;;;;;;;8.30;7.30;;;13.90;99.90;;;;;;4974153;28;20576;-78
2021/09/25 04:22:04;;;;;;;9.05;7.38;;;13.80;99.90;;;;;;4973712;28;20153;-78
2021/09/25 04:24:31;;;;;;;9.27;7.70;;;13.70;99.90;;;;;;4973528;28;20057;-78
2021/09/25 04:26:58;;;;;;;11.82;7.78;;;13.70;99.90;;;;;;4974669;28;20134;-79
2021/09/25 04:29:25;;;;;;;10.05;7.80;;;13.70;99.90;;;;;;4974136;28;20075;-76
2021/09/25 04:31:53;;;;;;;9.27;7.90;;;13.70;99.90;;;;;;4974006;28;20135;-78
2021/09/25 04:34:20;;;;;;;9.38;8.00;;;13.60;99.90;;;;;;4973678;28;20085;-79
2021/09/25 04:36:47;;;;;;;11.85;8.30;;;13.60;99.90;;;;;;4998916;23;20082;-76
2021/09/25 04:39:14;;;;;;;10.85;7.95;;;13.50;99.90;;;;;;4974871;28;20485;-77
2021/09/25 04:41:41;;;;;;;10.70;7.95;;;13.50;99.90;;;;;;4975420;28;20061;-77
2021/09/25 04:44:13;;;;;;;14.20;8.50;;;13.60;99.90;;;;;;4975271;28;20488;-77
2021/09/25 04:46:40;;;;;;;11.13;8.82;;;13.50;99.90;;;;;;4975222;28;20080;-77
2021/09/25 04:49:09;;;;;;;9.82;7.47;;;13.60;99.90;;;;;;4975458;28;20132;-77
2021/09/25 04:51:36;;;;;;;11.10;7.63;;;13.60;99.90;;;;;;4974852;28;20054;-77
2021/09/25 04:54:04;;;;;;;10.73;7.85;;;13.60;99.90;;;;;;4975011;28;20061;-77
2021/09/25 04:56:31;;;;;;;11.57;7.30;;;13.60;99.90;;;;;;4974808;28;20051;-77
2021/09/25 04:58:57;;;;;;;10.02;7.68;;;13.60;99.90;;;;;;4974758;28;20138;-77
2021/09/25 05:01:24;;;;;;;9.25;7.47;;;13.60;99.90;;;;;;4974339;28;20105;-77
2021/09/25 05:03:51;;;;;;;10.48;7.53;;;13.70;99.90;;;;;;4974728;28;20300;-77
2021/09/25 05:06:20;;;;;;;11.30;7.28;;;13.80;99.90;;;;;;4974422;28;20054;-77
2021/09/25 05:08:46;;;;;;;8.60;7.38;;;13.80;99.90;;;;;;4974290;28;20050;-77
2021/09/25 05:11:13;;;;;;;9.00;7.53;;;13.80;99.90;;;;;;4974424;28;20060;-77
2021/09/25 05:13:40;;;;;;;12.18;7.60;;;13.80;99.90;;;;;;4974289;28;20137;-77
2021/09/25 05:16:07;;;;;;;8.75;7.15;;;13.80;99.90;;;;;;4975006;28;20111;-76
2021/09/25 05:18:34;;;;;;;11.23;7.68;;;13.90;99.90;;;;;;4975466;28;20050;-77
2021/09/25 05:21:01;;;;;;;9.90;8.00;;;13.90;99.90;;;;;;4974907;28;20549;-77
2021/09/25 05:23:29;;;;;;;8.80;7.43;;;13.90;99.90;;;;;;4974614;28;20057;-77
2021/09/25 05:25:56;;;;;;;8.68;7.70;;;13.90;99.90;;;;;;4974823;28;20046;-77
2021/09/25 05:28:23;;;;;;;10.77;8.13;;;14.00;99.90;;;;;;4976298;28;20219;-79
2021/09/25 05:30:50;;;;;;;11.30;8.23;;;14.00;99.90;;;;;;4980375;28;20524;-78
2021/09/25 05:33:16;;;;;;;10.07;8.63;;;13.90;99.90;;;;;;4975359;28;20046;-78
2021/09/25 05:35:43;;;;;;;10.43;7.60;;;13.90;99.90;;;;;;4975440;28;20030;-78
2021/09/25 05:38:10;;;;;;;14.13;8.30;;;14.00;99.90;;;;;;4975923;28;20134;-78
2021/09/25 05:40:39;;;;;;;10.35;7.95;;;14.00;99.90;;;;;;4977086;28;20456;-78
2021/09/25 05:43:06;;;;;;;12.80;7.57;;;14.00;99.90;;;;;;4987607;28;20085;-78
2021/09/25 05:45:33;;;;;;;13.23;8.18;;;14.00;99.90;;;;;;4986644;28;20106;-78
2021/09/25 05:48:00;;;;;;;22.15;10.93;;;14.00;99.90;;;;;;4986493;28;20130;-77
2021/09/25 05:50:27;;;;;;;10.50;8.43;;;14.10;99.90;;;;;;4977232;28;20083;-76
2021/09/25 05:52:54;;;;;;;11.02;8.00;;;13.90;99.90;;;;;;4974170;28;20061;-76
2021/09/25 05:55:21;;;;;;;15.50;8.77;;;14.00;99.90;;;;;;4974122;28;20046;-77
2021/09/25 05:57:50;;;;;;;14.13;9.13;;;14.10;99.90;;;;;;4975437;28;20132;-78
2021/09/25 06:00:18;;;;;;;11.30;9.00;;;14.20;99.90;;;;;;4974406;28;20142;-78
2021/09/25 06:02:45;;;;;;;12.88;8.45;;;14.30;99.90;;;;;;4974745;28;20051;-78
2021/09/25 06:05:12;;;;;;;10.23;8.77;;;14.30;99.90;;;;;;4975552;28;20070;-77
2021/09/25 06:07:39;;;;;;;11.18;8.73;;;14.40;99.90;;;;;;4975495;28;20585;-76
2021/09/25 06:10:07;;;;;;;11.10;8.88;;;14.40;99.90;;;;;;4978601;28;20138;-76
2021/09/25 06:12:34;;;;;;;14.05;8.55;;;14.50;99.90;;;;;;4975564;28;20138;-77
2021/09/25 06:15:02;;;;;;;12.98;9.23;;;14.60;99.90;;;;;;4975396;28;20517;-81
2021/09/25 06:17:29;;;;;;;16.20;9.45;;;14.60;99.90;;;;;;4975115;28;20054;-78
2021/09/25 06:19:57;;;;;;;21.90;9.40;;;14.70;99.90;;;;;;4974495;28;20057;-78
2021/09/25 06:22:25;;;;;;;15.88;9.10;;;14.70;99.90;;;;;;4973850;28;20074;-78
2021/09/25 06:24:52;;;;;;;11.65;8.77;;;14.80;99.90;;;;;;4975566;28;20057;-78
2021/09/25 06:27:19;;;;;;;13.63;9.13;;;14.90;99.90;;;;;;4977911;28;20069;-78
2021/09/25 06:29:46;;;;;;;12.32;9.38;;;15.00;99.90;;;;;;4977644;28;20149;-78
2021/09/25 06:32:15;;;;;;;11.68;9.30;;;15.10;99.90;;;;;;4977602;28;20082;-78
2021/09/25 06:34:41;;;;;;;12.25;9.50;;;15.10;99.90;;;;;;4977529;28;20153;-78
2021/09/25 06:37:08;;;;;;;14.20;9.02;;;15.20;99.90;;;;;;4977750;28;20129;-78
2021/09/25 06:39:35;;;;;;;11.40;9.05;;;15.20;99.90;;;;;;4978988;28;20051;-79
2021/09/25 06:42:02;;;;;;;13.13;9.45;;;15.40;99.90;;;;;;4982661;28;20114;-79
2021/09/25 06:44:29;;;;;;;12.65;9.05;;;15.60;99.90;;;;;;4981633;28;20090;-79
2021/09/25 06:46:56;;;;;;;11.75;9.07;;;15.80;99.90;;;;;;4980449;28;20081;-79
2021/09/25 06:49:24;;;;;;;12.10;9.07;;;16.00;99.90;;;;;;4979646;28;20054;-79
2021/09/25 06:51:51;;;;;;;11.52;8.98;;;16.20;99.90;;;;;;4980150;28;20390;-79
2021/09/25 06:54:18;;;;;;;11.38;8.65;;;16.30;99.90;;;;;;4978405;28;20078;-79
2021/09/25 06:56:45;;;;;;;13.48;8.50;;;16.50;99.90;;;;;;4978767;28;20126;-79
2021/09/25 06:59:12;;;;;;;9.98;8.82;;;16.60;99.90;;;;;;4978714;28;20051;-79
2021/09/25 07:01:39;;;;;;;11.20;8.63;;;16.60;99.90;;;;;;4978503;28;20134;-78
2021/09/25 07:04:06;;;;;;;12.80;9.27;;;16.60;99.90;;;;;;4977198;28;20153;-79
2021/09/25 07:06:34;;;;;;;13.35;9.00;;;16.50;99.90;;;;;;4978589;28;20046;-78
2021/09/25 07:09:01;;;;;;;10.20;8.93;;;16.60;99.90;;;;;;4978078;28;20050;-77
2021/09/25 07:11:28;;;;;;;10.48;8.95;;;16.60;99.90;;;;;;4976987;28;20482;-78
2021/09/25 07:13:55;;;;;;;12.68;8.88;;;16.70;99.90;;;;;;4977255;28;20227;-77
2021/09/25 07:16:22;;;;;;;10.45;9.35;;;16.70;99.90;;;;;;4977367;28;20574;-78
2021/09/25 07:18:49;;;;;;;12.10;9.38;;;16.60;99.90;;;;;;4977241;28;20070;-78
2021/09/25 07:21:15;;;;;;;15.05;9.23;;;16.70;99.90;;;;;;4976827;28;20505;-77
2021/09/25 07:23:44;;;;;;;9.95;8.93;;;16.90;99.90;;;;;;4976093;28;20568;-79
2021/09/25 07:26:12;;;;;;;12.40;8.90;;;16.90;99.90;;;;;;4977102;28;20114;-79
2021/09/25 07:28:39;;;;;;;11.43;9.10;;;17.10;99.90;;;;;;4981214;28;20054;-79
2021/09/25 07:31:11;;;;;;;10.57;8.88;;;17.10;99.90;;;;;;4981280;28;20138;-79
2021/09/25 07:33:39;;;;;;;16.80;9.30;;;17.10;99.90;;;;;;4980107;28;20101;-79
2021/09/25 07:36:10;;;;;;;16.75;9.65;;;17.20;99.90;;;;;;4977156;28;20339;-78
2021/09/25 07:38:37;;;;;;;13.07;8.75;;;17.40;99.90;;;;;;4977478;28;20418;-78
2021/09/25 07:41:06;;;;;;;19.27;9.43;;;17.60;99.90;;;;;;4977554;28;20137;-78
2021/09/25 07:43:34;;;;;;;23.63;9.20;;;17.80;99.90;;;;;;4979103;28;20082;-79
2021/09/25 07:46:01;;;;;;;13.20;8.00;;;18.00;99.90;;;;;;4979790;28;20135;-78
2021/09/25 07:51:52;;;;;;;11.45;7.68;;;18.80;99.90;;;;;;4885572;29;20048;-80
2021/09/25 07:54:20;;;;;;;9.45;7.32;;;19.70;99.90;;;;;;4944379;29;20488;-79
2021/09/25 07:56:48;;;;;;;8.68;6.95;;;20.40;99.90;;;;;;4965855;28;20102;-80
2021/09/25 07:59:15;;;;;;;9.40;7.25;;;21.10;99.90;;;;;;4966887;29;20055;-80
2021/09/25 08:01:42;;;;;;;9.95;7.10;;;21.40;99.90;;;;;;4979424;28;20131;-81
2021/09/25 08:04:09;;;;;;;11.73;6.85;;;22.10;99.90;;;;;;4986787;28;20054;-81
2021/09/25 08:06:35;;;;;;;10.60;6.80;;;22.70;99.90;;;;;;4985572;28;20070;-80
2021/09/25 08:09:02;;;;;;;7.72;6.65;;;23.10;99.90;;;;;;4986371;28;20110;-80
2021/09/25 08:11:29;;;;;;;8.15;6.38;;;23.40;99.90;;;;;;4985835;28;20085;-81
2021/09/25 08:13:57;;;;;;;6.53;5.68;;;23.90;99.90;;;;;;4978085;28;20086;-79
2021/09/25 08:16:24;;;;;;;9.40;6.28;;;24.10;99.90;;;;;;4977318;28;20093;-80
2021/09/25 08:18:51;;;;;;;8.20;6.47;;;24.30;99.90;;;;;;4977229;28;20065;-79
2021/09/25 08:21:18;;;;;;;8.40;6.68;;;24.50;99.90;;;;;;4977153;28;20051;-79
2021/09/25 08:23:45;;;;;;;11.43;6.82;;;24.80;99.90;;;;;;4976492;28;20142;-80
2021/09/25 08:26:12;;;;;;;11.25;6.72;;;25.00;99.90;;;;;;4975080;28;20423;-77
2021/09/25 08:28:39;;;;;;;8.30;7.30;;;25.10;99.90;;;;;;4975862;28;20055;-76
2021/09/25 08:31:07;;;;;;;8.70;7.43;;;25.00;99.90;;;;;;4976109;28;20066;-78
2021/09/25 08:33:34;;;;;;;11.95;7.10;;;24.80;99.90;;;;;;4975361;28;20142;-77
2021/09/25 08:36:01;;;;;;;9.45;6.97;;;24.60;99.90;;;;;;4975276;28;20133;-77
2021/09/25 08:38:28;;;;;;;12.05;6.65;;;24.40;99.90;;;;;;4975688;28;20051;-76
2021/09/25 08:40:55;;;;;;;13.13;6.80;;;24.30;99.90;;;;;;4975911;28;20076;-77
2021/09/25 08:43:24;;;;;;;8.23;6.50;;;24.20;99.90;;;;;;4976264;28;20457;-77
2021/09/25 08:45:56;;;;;;;9.13;6.38;;;24.10;99.90;;;;;;4975173;28;20082;-77
2021/09/25 08:48:25;;;;;;;;;;;23.80;99.90;;;;;;4975254;28;20061;-77
2021/09/25 08:50:52;;;;;;;7.80;6.30;;;23.60;99.90;;;;;;4975416;28;20380;-77
2021/09/25 08:53:19;;;;;;;8.57;6.40;;;23.80;99.90;;;;;;4975226;28;20133;-77
2021/09/25 08:55:46;;;;;;;10.20;6.53;;;23.90;99.90;;;;;;4966927;28;20122;-77
2021/09/25 08:58:13;;;;;;;8.07;6.45;;;23.90;99.90;;;;;;4963642;28;20047;-74
2021/09/25 09:00:43;;;;;;;6.78;6.05;;;24.10;99.90;;;;;;4955149;28;20061;-76
2021/09/25 09:03:32;;;;;;;8.27;6.40;;;24.10;99.90;;;;;;4955301;28;20054;-77
2021/09/25 09:06:09;;;;;;;8.25;6.55;;;23.70;99.90;;;;;;4955206;28;20050;-78
2021/09/25 09:08:37;;;;;;;7.95;5.95;;;23.40;99.90;;;;;;4954837;28;20047;-77
2021/09/25 09:11:06;;;;;;;10.77;6.90;;;22.90;99.90;;;;;;4955281;28;20189;-78
2021/09/25 09:13:33;;;;;;;8.25;6.05;;;22.60;99.90;;;;;;4970003;28;20111;-79
2021/09/25 09:16:03;;;;;;;7.82;6.30;;;22.40;99.90;;;;;;4973669;28;20082;-78
2021/09/25 09:18:32;;;;;;;10.43;6.63;;;22.30;99.90;;;;;;4974334;28;20054;-78
2021/09/25 09:21:05;;;;;;;7.70;6.75;;;22.10;99.90;;;;;;4974651;28;20054;-78
2021/09/25 09:23:36;;;;;;;12.07;7.30;;;22.10;99.90;;;;;;4974946;28;20133;-78
2021/09/25 09:26:04;;;;;;;7.97;6.18;;;22.00;99.90;;;;;;4974247;28;20055;-77
2021/09/25 09:28:33;;;;;;;9.43;6.70;;;22.10;99.90;;;;;;4974658;28;20141;-78
2021/09/25 09:31:04;;;;;;;10.38;6.65;;;22.20;99.90;;;;;;4983581;28;20113;-79
2021/09/25 09:33:35;;;;;;;11.02;7.75;;;22.30;99.90;;;;;;4977203;28;20529;-79
2021/09/25 09:36:20;;;;;;;9.55;6.88;;;22.30;99.90;;;;;;4985447;28;20046;-79
2021/09/25 09:38:50;;;;;;;9.50;6.30;;;22.20;99.90;;;;;;4988758;28;20086;-76
2021/09/25 09:41:22;;;;;;;9.43;6.40;;;22.20;99.90;;;;;;4985508;28;20045;-77
2021/09/25 09:43:49;;;;;;;8.65;7.40;;;22.20;99.90;;;;;;4982072;28;20137;-79
2021/09/25 09:46:16;;;;;;;8.35;6.72;;;21.90;99.90;;;;;;4978097;28;20097;-77
2021/09/25 09:48:47;;;;;;;11.77;8.75;;;21.80;99.90;;;;;;4976478;28;20110;-80
2021/09/25 09:51:14;;;;;;;8.50;6.00;;;21.90;99.90;;;;;;4977601;28;20051;-79
2021/09/25 09:53:49;;;;;;;9.90;5.93;;;21.90;99.90;;;;;;4978507;28;20054;-79
2021/09/25 09:56:25;;;;;;;8.55;6.80;;;21.90;99.90;;;;;;4978564;28;20513;-79
2021/09/25 09:59:04;;;;;;;8.23;6.30;;;21.90;99.90;;;;;;4976725;28;20050;-80
2021/09/25 10:01:32;;;;;;;8.93;6.40;;;22.00;99.90;;;;;;4977360;28;20058;-79
2021/09/25 10:04:01;;;;;;;9.90;6.47;;;22.00;99.90;;;;;;4977004;28;20062;-80
2021/09/25 10:06:28;;;;;;;8.02;6.35;;;22.10;99.90;;;;;;4977881;28;20047;-81
2021/09/25 10:08:55;;;;;;;10.02;6.75;;;22.00;99.90;;;;;;4976483;28;20082;-79
2021/09/25 10:11:23;;;;;;;9.63;6.28;;;21.80;99.90;;;;;;4978617;28;20058;-82
2021/09/25 10:13:51;;;;;;;7.80;6.43;;;21.80;99.90;;;;;;4978738;28;20058;-80
2021/09/25 10:16:18;;;;;;;8.75;6.50;;;21.80;99.90;;;;;;4979639;28;20050;-80
2021/09/25 10:18:45;;;;;;;10.80;6.45;;;21.90;99.90;;;;;;4978668;28;20594;-80
2021/09/25 10:21:15;;;;;;;8.30;7.07;;;22.00;99.90;;;;;;4978520;28;20054;-80
2021/09/25 10:23:49;;;;;;;8.20;6.90;;;22.00;99.90;;;;;;4977022;28;20078;-80
2021/09/25 10:26:17;;;;;;;7.82;5.93;;;22.00;99.90;;;;;;4975587;28;20143;-80
2021/09/25 10:28:54;;;;;;;10.05;6.07;;;21.80;99.90;;;;;;4976090;28;20047;-80
2021/09/25 10:31:21;;;;;;;9.68;6.50;;;21.80;99.90;;;;;;4977390;28;20074;-80
2021/09/25 10:34:19;;;;;;;9.65;5.85;;;21.70;99.90;;;;;;4976951;28;20571;-80
2021/09/25 10:50:21;;;;;;;7.45;5.55;;;22.20;99.90;;;;;;4884717;29;20116;-83
2021/09/25 10:56:06;;;;;;;10.15;5.85;;;22.40;99.90;;;;;;4921496;29;20056;-84
2021/09/25 11:25:06;;;;;;;8.07;5.90;;;23.00;99.90;;;;;;4877839;29;20500;-83
2021/09/25 11:34:21;;;;;;;7.78;6.60;;;22.70;99.90;;;;;;5010243;23;20062;-78
2021/09/25 11:36:51;;;;;;;9.27;6.15;;;22.80;99.90;;;;;;4968786;29;20075;-79
2021/09/25 11:39:22;;;;;;;8.75;6.78;;;22.90;99.90;;;;;;4961655;29;20093;-81
2021/09/25 11:42:14;;;;;;;9.52;6.38;;;22.90;99.90;;;;;;4963108;28;20051;-81
2021/09/25 11:44:46;;;;;;;8.88;5.80;;;22.80;99.90;;;;;;4965627;28;20146;-80
2021/09/25 11:47:34;;;;;;;6.60;5.75;;;22.80;99.90;;;;;;4963587;29;20111;-81
2021/09/25 11:50:11;;;;;;;7.38;5.80;;;22.80;99.90;;;;;;4965526;29;20074;-81
2021/09/25 11:52:41;;;;;;;6.75;5.32;;;22.90;99.90;;;;;;4966665;28;20141;-80
2021/09/25 11:55:10;;;;;;;8.13;5.50;;;22.80;99.90;;;;;;4964475;29;20055;-80
2021/09/25 11:57:37;;;;;;;7.85;5.40;;;22.90;99.90;;;;;;4967760;29;20102;-81
2021/09/25 12:00:17;;;;;;;9.35;5.28;;;22.80;99.90;;;;;;4969675;29;20058;-82
2021/09/25 12:02:46;;;;;;;6.30;5.35;;;22.80;99.90;;;;;;4965049;28;20094;-79
2021/09/25 12:05:30;;;;;;;7.07;4.63;;;22.90;99.90;;;;;;4967537;29;20051;-80
2021/09/25 12:08:00;;;;;;;8.75;4.40;;;23.00;99.90;;;;;;4966797;29;20049;-80
2021/09/25 12:10:31;;;;;;;5.70;4.93;;;23.10;99.90;;;;;;4968140;29;20053;-83
2021/09/25 12:13:01;;;;;;;8.37;4.80;;;23.20;99.90;;;;;;4962743;28;20488;-82
2021/09/25 12:15:31;;;;;;;6.22;4.55;;;23.30;99.90;;;;;;4963695;29;20070;-83
2021/09/25 12:18:07;;;;;;;6.18;4.47;;;23.30;99.90;;;;;;4960169;29;20147;-82
2021/09/25 12:20:34;;;;;;;5.05;4.55;;;23.40;99.90;;;;;;4961103;28;20061;-83
2021/09/25 12:37:10;;;;;;;6.18;5.47;;;23.40;99.90;;;;;;4932144;23;20394;-77
2021/09/25 12:39:37;;;;;;;6.55;5.05;;;23.50;99.90;;;;;;4974254;28;20480;-77
2021/09/25 12:42:05;;;;;;;5.85;4.70;;;23.60;99.90;;;;;;4973581;28;20055;-78
2021/09/25 12:44:36;;;;;;;7.05;4.65;;;23.80;99.90;;;;;;4973874;28;20070;-78
2021/09/25 12:47:04;;;;;;;6.80;5.68;;;23.90;99.90;;;;;;4973334;28;20075;-78
2021/09/25 12:49:35;;;;;;;7.30;5.38;;;23.90;99.90;;;;;;4973557;28;20118;-78
2021/09/25 12:52:05;;;;;;;6.15;5.30;;;24.00;99.90;;;;;;4974012;28;20062;-76
2021/09/25 12:54:36;;;;;;;8.27;5.30;;;24.00;99.90;;;;;;4973844;28;20101;-76
2021/09/25 12:57:05;;;;;;;8.32;5.53;;;23.90;99.90;;;;;;4973161;28;20082;-76
2021/09/25 12:59:34;;;;;;;7.47;5.30;;;23.90;99.90;;;;;;4972870;28;20081;-77
2021/09/25 13:02:02;;;;;;;6.13;5.00;;;23.90;99.90;;;;;;4973153;28;20203;-76
2021/09/25 13:04:31;;;;;;;6.22;5.28;;;24.00;99.90;;;;;;4972616;28;20129;-77
2021/09/25 13:06:59;;;;;;;7.88;5.25;;;24.00;99.90;;;;;;4973108;28;20528;-77
2021/09/25 13:09:27;;;;;;;11.77;5.78;;;24.00;99.90;;;;;;4972960;28;20082;-76
2021/09/25 13:12:14;;;;;;;6.85;4.97;;;24.00;99.90;;;;;;4972874;28;20050;-78
2021/09/25 13:14:42;;;;;;;9.15;5.20;;;24.00;99.90;;;;;;4973084;28;20126;-78
2021/09/25 13:17:09;;;;;;;5.07;4.28;;;23.90;99.90;;;;;;4972811;28;20133;-78
2021/09/25 13:19:36;;;;;;;5.68;4.60;;;23.90;99.90;;;;;;4972693;28;20082;-78
2021/09/25 13:22:07;;;;;;;6.82;5.05;;;24.00;99.90;;;;;;4972786;28;20435;-77
2021/09/25 13:24:34;;;;;;;7.57;4.75;;;23.90;99.90;;;;;;4972412;28;20078;-78
2021/09/25 13:27:01;;;;;;;4.80;3.80;;;23.80;99.90;;;;;;4972295;28;20133;-77
2021/09/25 13:29:30;;;;;;;6.45;4.65;;;23.80;99.90;;;;;;4972497;28;20137;-77
2021/09/25 13:31:56;;;;;;;5.00;4.07;;;23.90;99.90;;;;;;4972618;28;20077;-77
2021/09/25 13:34:23;;;;;;;5.55;4.35;;;24.00;99.90;;;;;;4972005;28;20051;-76
2021/09/25 13:36:50;;;;;;;5.28;4.35;;;24.10;99.90;;;;;;4972475;28;20138;-77
2021/09/25 13:39:17;;;;;;;5.00;4.38;;;24.10;99.90;;;;;;4972886;28;20077;-77
2021/09/25 13:41:45;;;;;;;5.90;4.13;;;24.10;99.90;;;;;;4972676;28;20050;-77
2021/09/25 13:44:12;;;;;;;6.55;4.20;;;24.00;99.90;;;;;;4972206;28;20055;-77
2021/09/25 13:46:40;;;;;;;6.57;4.35;;;24.00;99.90;;;;;;4972315;28;20058;-78
2021/09/25 13:49:07;;;;;;;5.07;4.22;;;24.00;99.90;;;;;;4972421;28;20177;-77
2021/09/25 13:51:35;;;;;;;4.90;4.30;;;24.00;99.90;;;;;;4972703;28;20528;-77
2021/09/25 13:54:02;;;;;;;4.50;4.10;;;24.00;99.90;;;;;;4972523;28;20125;-76
2021/09/25 13:56:29;;;;;;;6.53;4.78;;;24.00;99.90;;;;;;4971945;28;20509;-78